createdAt,value
2022-08-03T00:00:18.697Z,101343.72
2022-08-03T00:02:45.019Z,101339.28
2022-08-03T00:05:11.237Z,101337.59
2022-08-03T00:07:37.465Z,101327.63
2022-08-03T00:10:03.641Z,101335.25
2022-08-03T00:12:29.876Z,101332.91
2022-08-03T00:14:56.042Z,101329.53
2022-08-03T00:17:22.272Z,101317.25
2022-08-03T00:19:48.462Z,101320.19
2022-08-03T00:22:14.889Z,101317.63
2022-08-03T00:24:41.281Z,101318.91
2022-08-03T00:27:07.505Z,101311.91
2022-08-03T00:29:33.710Z,101314.03
2022-08-03T00:32:19.914Z,101299.63
2022-08-03T00:34:57.718Z,101299.84
2022-08-03T00:37:41.697Z,101305.53
2022-08-03T00:40:08.146Z,101304.91
2022-08-03T00:42:34.369Z,101303.22
2022-08-03T00:45:00.588Z,101297.91
2022-08-03T00:47:26.799Z,101296.44
2022-08-03T00:49:53.035Z,101297.47
2022-08-03T00:52:19.431Z,101297.69
2022-08-03T00:54:45.807Z,101289.00
2022-08-03T00:57:12.040Z,101287.28
2022-08-03T00:59:38.243Z,101293.03
2022-08-03T01:02:04.484Z,101284.97
2022-08-03T01:04:30.663Z,101292.56
2022-08-03T01:06:56.909Z,101290.03
2022-08-03T01:09:23.140Z,101288.34
2022-08-03T01:11:59.826Z,101286.84
2022-08-03T01:14:26.640Z,101293.41
2022-08-03T01:16:52.845Z,101294.44
2022-08-03T01:19:19.175Z,101283.88
2022-08-03T01:21:45.375Z,101283.22
2022-08-03T01:24:13.029Z,101287.03
2022-08-03T01:26:39.233Z,101284.47
2022-08-03T01:29:05.453Z,101270.75
2022-08-03T01:31:31.668Z,101263.72
2022-08-03T01:33:57.955Z,101270.31
2022-08-03T01:36:24.138Z,101274.97
2022-08-03T01:38:50.365Z,101272.38
2022-08-03T01:41:16.572Z,101274.50
2022-08-03T01:44:28.398Z,101274.50
2022-08-03T01:46:28.943Z,101276.59
2022-08-03T01:48:55.231Z,101269.38
2022-08-03T01:51:21.505Z,101267.72
2022-08-03T01:53:47.708Z,101269.38
2022-08-03T01:56:13.912Z,101273.22
2022-08-03T01:58:40.111Z,101267.72
2022-08-03T02:01:06.431Z,101270.66
2022-08-03T02:03:32.660Z,101264.31
2022-08-03T02:07:02.301Z,101260.50
2022-08-03T02:08:45.017Z,101267.06
2022-08-03T02:11:11.229Z,101270.66
2022-08-03T02:13:37.446Z,101275.97
2022-08-03T02:16:03.647Z,101273.22
2022-08-03T02:18:29.892Z,101278.69
2022-08-03T02:20:56.092Z,101279.53
2022-08-03T02:23:22.318Z,101274.88
2022-08-03T02:25:48.497Z,101270.47
2022-08-03T02:28:14.694Z,101274.25
2022-08-03T02:30:40.885Z,101277.84
2022-08-03T02:33:07.101Z,101277.00
2022-08-03T02:35:35.021Z,101275.09
2022-08-03T02:38:01.184Z,101277.84
2022-08-03T02:40:27.379Z,101271.50
2022-08-03T02:42:53.572Z,101275.28
2022-08-03T02:45:19.780Z,101269.81
2022-08-03T02:47:53.565Z,101269.81
2022-08-03T02:50:21.075Z,101272.53
2022-08-03T02:52:47.319Z,101275.28
2022-08-03T02:55:13.489Z,101274.44
2022-08-03T02:57:39.686Z,101272.53
2022-08-03T03:00:05.884Z,101279.09
2022-08-03T03:02:32.129Z,101271.88
2022-08-03T03:05:55.855Z,101272.97
2022-08-03T03:07:52.993Z,101281.22
2022-08-03T03:10:19.409Z,101277.81
2022-08-03T03:12:45.663Z,101282.69
2022-08-03T03:15:11.863Z,101276.53
2022-08-03T03:17:38.078Z,101277.56
2022-08-03T03:20:04.278Z,101276.94
2022-08-03T03:22:30.498Z,101268.03
2022-08-03T03:24:56.731Z,101269.31
2022-08-03T03:27:24.481Z,101266.75
2022-08-03T03:29:50.699Z,101268.88
2022-08-03T03:32:17.181Z,101271.81
2022-08-03T03:34:44.232Z,101264.84
2022-08-03T03:37:10.582Z,101272.41
2022-08-03T03:39:36.795Z,101272.59
2022-08-03T03:42:03.008Z,101275.56
2022-08-03T03:44:29.244Z,101270.47
2022-08-03T03:46:55.462Z,101273.44
2022-08-03T03:49:21.734Z,101273.63
2022-08-03T03:51:48.029Z,101267.09
2022-08-03T03:54:14.202Z,101268.97
2022-08-03T03:56:40.420Z,101267.94
2022-08-03T03:59:06.605Z,101263.31
2022-08-03T04:01:32.798Z,101273.88
2022-08-03T04:03:59.045Z,101268.19
2022-08-03T04:06:25.271Z,101267.97
2022-08-03T04:08:51.490Z,101268.81
2022-08-03T04:11:17.706Z,101265.66
2022-08-03T04:13:43.923Z,101277.84
2022-08-03T04:16:10.124Z,101271.97
2022-08-03T04:18:36.342Z,101268.97
2022-08-03T04:21:02.550Z,101263.59
2022-08-03T04:23:28.773Z,101262.94
2022-08-03T04:25:54.982Z,101265.16
2022-08-03T04:28:30.920Z,101271.56
2022-08-03T04:30:57.983Z,101261.59
2022-08-03T04:33:24.247Z,101263.22
2022-08-03T04:36:01.801Z,101257.59
2022-08-03T04:38:29.298Z,101268.78
2022-08-03T04:40:55.476Z,101262.75
2022-08-03T04:43:21.673Z,101259.81
2022-08-03T04:45:47.905Z,101261.34
2022-08-03T04:48:14.103Z,101261.34
2022-08-03T04:50:40.304Z,101259.03
2022-08-03T04:53:06.487Z,101261.72
2022-08-03T04:55:34.532Z,101274.94
2022-08-03T04:58:00.751Z,101268.56
2022-08-03T05:00:26.967Z,101267.00
2022-08-03T05:02:53.203Z,101270.44
2022-08-03T05:05:19.549Z,101277.50
2022-08-03T05:07:45.786Z,101277.97
2022-08-03T05:10:15.082Z,101272.81
2022-08-03T05:12:42.825Z,101275.44
2022-08-03T05:15:09.009Z,101270.56
2022-08-03T05:17:35.256Z,101273.09
2022-08-03T05:20:01.485Z,101276.84
2022-08-03T05:22:27.695Z,101279.22
2022-08-03T05:24:53.968Z,101277.97
2022-08-03T05:27:20.191Z,101276.09
2022-08-03T05:29:46.426Z,101280.09
2022-08-03T05:32:12.617Z,101276.84
2022-08-03T05:34:38.828Z,101282.59
2022-08-03T05:37:05.037Z,101277.47
2022-08-03T05:39:31.278Z,101281.25
2022-08-03T05:41:57.480Z,101278.63
2022-08-03T05:44:23.722Z,101272.66
2022-08-03T05:46:49.947Z,101277.78
2022-08-03T05:49:16.197Z,101282.38
2022-08-03T05:51:42.448Z,101285.91
2022-08-03T05:54:08.637Z,101286.41
2022-08-03T05:56:34.858Z,101290.28
2022-08-03T05:59:16.318Z,101290.28
2022-08-03T06:01:47.412Z,101288.34
2022-08-03T06:04:13.746Z,101289.78
2022-08-03T06:06:39.984Z,101285.91
2022-08-03T06:09:06.179Z,101290.38
2022-08-03T06:11:32.404Z,101287.09
2022-08-03T06:13:58.601Z,101283.56
2022-08-03T06:16:24.836Z,101294.50
2022-08-03T06:18:51.025Z,101286.53
2022-08-03T06:21:17.212Z,101286.59
2022-08-03T06:23:54.320Z,101286.97
2022-08-03T06:26:21.609Z,101285.38
2022-08-03T06:28:52.869Z,101287.13
2022-08-03T06:31:20.086Z,101293.38
2022-08-03T06:33:48.346Z,101284.63
2022-08-03T06:36:32.534Z,101284.47
2022-08-03T06:38:58.769Z,101283.47
2022-08-03T06:41:24.959Z,101280.50
2022-08-03T06:44:03.444Z,101277.31
2022-08-03T06:46:30.554Z,101277.38
2022-08-03T06:48:56.867Z,101279.13
2022-08-03T06:51:23.107Z,101280.31
2022-08-03T06:54:09.303Z,101280.38
2022-08-03T06:56:35.494Z,101276.00
2022-08-03T06:59:01.718Z,101266.03
2022-08-03T07:01:28.000Z,101272.75
2022-08-03T07:03:54.221Z,101270.66
2022-08-03T07:06:20.477Z,101268.53
2022-08-03T07:08:49.500Z,101270.88
2022-08-03T07:11:18.112Z,101269.25
2022-08-03T07:13:44.294Z,101264.59
2022-08-03T07:16:10.508Z,101269.94
2022-08-03T07:18:36.709Z,101268.84
2022-08-03T07:21:02.937Z,101267.22
2022-08-03T07:23:29.129Z,101270.09
2022-08-03T07:25:55.349Z,101266.50
2022-08-03T07:28:21.582Z,101271.88
2022-08-03T07:30:47.794Z,101277.59
2022-08-03T07:33:14.073Z,101279.91
2022-08-03T07:35:40.274Z,101278.03
2022-08-03T07:38:06.537Z,101274.44
2022-08-03T07:40:32.735Z,101277.81
2022-08-03T07:42:58.964Z,101277.28
2022-08-03T07:45:25.167Z,101272.56
2022-08-03T07:47:53.555Z,101277.56
2022-08-03T07:50:20.156Z,101275.59
2022-08-03T07:52:46.353Z,101270.03
2022-08-03T07:55:12.587Z,101272.81
2022-08-03T07:57:38.793Z,101278.66
2022-08-03T08:00:05.033Z,101273.91
2022-08-03T08:02:31.248Z,101263.31
2022-08-03T08:05:00.041Z,101270.56
2022-08-03T08:07:29.856Z,101266.66
2022-08-03T08:09:56.148Z,101272.22
2022-08-03T08:12:22.382Z,101271.97
2022-08-03T08:14:48.656Z,101278.66
2022-08-03T08:17:14.953Z,101280.59
2022-08-03T08:19:47.499Z,101275.28
2022-08-03T08:22:18.308Z,101274.44
2022-08-03T08:24:49.775Z,101275.56
2022-08-03T08:27:17.992Z,101271.91
2022-08-03T08:29:47.576Z,101270.22
2022-08-03T08:32:19.656Z,101269.13
2022-08-03T08:34:45.973Z,101270.81
2022-08-03T08:37:12.269Z,101266.94
2022-08-03T08:39:38.486Z,101274.75
2022-08-03T08:42:04.724Z,101267.00
2022-08-03T08:44:30.965Z,101275.06
2022-08-03T08:46:57.166Z,101266.19
2022-08-03T08:49:23.440Z,101262.56
2022-08-03T08:51:59.047Z,101264.50
2022-08-03T08:54:26.807Z,101267.84
2022-08-03T08:56:53.015Z,101269.56
2022-08-03T08:59:19.260Z,101259.25
2022-08-03T09:01:45.512Z,101266.50
2022-08-03T09:04:12.561Z,101258.69
2022-08-03T09:06:38.790Z,101258.44
2022-08-03T09:09:05.013Z,101249.84
2022-08-03T09:11:51.554Z,101257.66
2022-08-03T09:14:36.547Z,101262.44
2022-08-03T09:17:03.656Z,101264.44
2022-08-03T09:19:29.892Z,101252.75
2022-08-03T09:21:56.133Z,101252.19
2022-08-03T09:24:40.665Z,101246.97
2022-08-03T09:27:07.932Z,101243.66
2022-08-03T09:29:34.247Z,101251.47
2022-08-03T09:32:00.538Z,101244.84
2022-08-03T09:34:26.764Z,101245.13
2022-08-03T09:36:53.011Z,101245.44
2022-08-03T09:39:19.218Z,101249.97
2022-08-03T09:41:45.449Z,101253.91
2022-08-03T09:44:24.251Z,101248.34
2022-08-03T09:46:52.198Z,101243.06
2022-08-03T09:49:18.523Z,101244.22
2022-08-03T09:52:32.115Z,101247.03
2022-08-03T09:54:31.194Z,101241.19
2022-08-03T09:56:57.404Z,101241.00
2022-08-03T09:59:23.669Z,101248.00
2022-08-03T10:01:49.913Z,101232.97
2022-08-03T10:04:16.141Z,101243.03
2022-08-03T10:06:42.377Z,101231.34
2022-08-03T10:09:08.653Z,101230.78
2022-08-03T10:11:40.572Z,101225.22
2022-08-03T10:14:07.536Z,101226.38
2022-08-03T10:16:33.737Z,101226.97
2022-08-03T10:19:00.035Z,101218.34
2022-08-03T10:21:26.304Z,101218.09
2022-08-03T10:23:52.500Z,101222.28
2022-08-03T10:26:18.734Z,101219.25
2022-08-03T10:28:45.618Z,101222.31
2022-08-03T10:31:11.925Z,101212.53
2022-08-03T10:33:50.993Z,101216.75
2022-08-03T10:36:18.942Z,101200.78
2022-08-03T10:38:45.205Z,101205.28
2022-08-03T10:41:11.414Z,101206.69
2022-08-03T10:43:37.671Z,101208.69
2022-08-03T10:46:03.890Z,101205.88
2022-08-03T10:48:30.099Z,101203.63
2022-08-03T10:50:56.350Z,101205.34
2022-08-03T10:53:23.038Z,101196.66
2022-08-03T10:55:49.726Z,101181.84
2022-08-03T10:58:15.935Z,101193.03
2022-08-03T11:00:57.005Z,101191.31
2022-08-03T11:03:23.278Z,101186.28
2022-08-03T11:05:49.573Z,101188.22
2022-08-03T11:08:15.794Z,101180.66
2022-08-03T11:10:42.041Z,101184.31
2022-08-03T11:13:08.268Z,101183.44
2022-08-03T11:15:34.487Z,101181.47
2022-08-03T11:18:00.737Z,101183.09
2022-08-03T11:20:27.842Z,101177.22
2022-08-03T11:22:54.183Z,101172.72
2022-08-03T11:25:55.030Z,101170.44
2022-08-03T11:28:06.862Z,101171.84
2022-08-03T11:30:33.142Z,101175.22
2022-08-03T11:32:59.388Z,101180.22
2022-08-03T11:35:25.591Z,101173.47
2022-08-03T11:38:03.324Z,101175.94
2022-08-03T11:40:31.598Z,101184.56
2022-08-03T11:42:57.861Z,101178.63
2022-08-03T11:45:24.098Z,101171.56
2022-08-03T11:47:51.474Z,101169.59
2022-08-03T11:50:17.855Z,101167.34
2022-08-03T11:52:44.075Z,101165.34
2022-08-03T11:55:10.337Z,101161.06
2022-08-03T11:59:01.235Z,101166.03
2022-08-03T12:00:22.785Z,101161.72
2022-08-03T12:02:49.033Z,101164.44
2022-08-03T12:05:15.324Z,101166.38
2022-08-03T12:08:04.458Z,101156.47
2022-08-03T12:10:27.970Z,101163.34
2022-08-03T12:12:55.148Z,101168.03
2022-08-03T12:15:21.371Z,101166.25
2022-08-03T12:17:47.665Z,101161.94
2022-08-03T12:20:13.980Z,101156.31
2022-08-03T12:22:40.201Z,101152.94
2022-08-03T12:25:06.432Z,101137.16
2022-08-03T12:27:32.666Z,101156.75
2022-08-03T12:29:59.354Z,101147.16
2022-08-03T12:32:25.662Z,101150.75
2022-08-03T12:34:51.883Z,101144.22
2022-08-03T12:37:22.318Z,101144.44
2022-08-03T12:40:02.433Z,101133.72
2022-08-03T12:42:31.889Z,101134.50
2022-08-03T12:44:58.091Z,101136.63
2022-08-03T12:47:24.347Z,101132.34
2022-08-03T12:49:50.558Z,101126.13
2022-08-03T12:52:16.807Z,101128.53
2022-08-03T12:54:43.008Z,101119.66
2022-08-03T12:57:09.268Z,101116.75
2022-08-03T12:59:40.706Z,101111.28
2022-08-03T13:02:09.512Z,101110.28
2022-08-03T13:04:36.059Z,101104.53
2022-08-03T13:07:03.272Z,101106.63
2022-08-03T13:09:29.677Z,101102.97
2022-08-03T13:12:01.946Z,101107.97
2022-08-03T13:14:28.552Z,101113.53
2022-08-03T13:16:54.830Z,101110.50
2022-08-03T13:19:21.009Z,101112.47
2022-08-03T13:22:01.732Z,101114.16
2022-08-03T13:24:31.735Z,101106.25
2022-08-03T13:26:58.180Z,101107.31
2022-08-03T13:29:24.377Z,101111.69
2022-08-03T13:31:51.073Z,101105.31
2022-08-03T13:34:22.272Z,101103.56
2022-08-03T13:39:57.422Z,101110.72
2022-08-03T13:42:22.078Z,101098.44
2022-08-03T13:44:48.286Z,101108.63
2022-08-03T13:47:14.545Z,101101.97
2022-08-03T13:49:40.782Z,101097.91
2022-08-03T13:52:07.025Z,101090.91
2022-08-03T13:54:33.338Z,101095.38
2022-08-03T13:58:01.251Z,101100.31
2022-08-03T13:59:45.841Z,101093.00
2022-08-03T14:02:12.090Z,101093.63
2022-08-03T14:04:38.363Z,101088.97
2022-08-03T14:07:04.621Z,101080.09
2022-08-03T14:09:30.856Z,101082.28
2022-08-03T14:12:08.175Z,101078.41
2022-08-03T14:14:35.141Z,101078.16
2022-08-03T14:17:01.367Z,101074.81
2022-08-03T14:19:28.712Z,101078.56
2022-08-03T14:22:06.068Z,101073.06
2022-08-03T14:24:33.115Z,101061.78
2022-08-03T14:27:07.174Z,101063.34
2022-08-03T14:29:35.373Z,101068.75
2022-08-03T14:32:11.529Z,101074.28
2022-08-03T14:34:38.539Z,101061.19
2022-08-03T14:37:04.821Z,101067.78
2022-08-03T14:39:58.331Z,101056.84
2022-08-03T14:42:17.252Z,101065.81
2022-08-03T14:44:43.467Z,101069.78
2022-08-03T14:47:09.714Z,101070.13
2022-08-03T14:50:30.177Z,101064.13
2022-08-03T14:52:22.167Z,101059.69
2022-08-03T14:54:48.378Z,101042.22
2022-08-03T14:57:14.614Z,101053.25
2022-08-03T14:59:55.888Z,101050.69
2022-08-03T15:02:24.194Z,101049.44
2022-08-03T15:04:50.719Z,101053.78
2022-08-03T15:07:17.071Z,101048.22
2022-08-03T15:09:43.396Z,101040.47
2022-08-03T15:12:09.613Z,101033.19
2022-08-03T15:14:35.857Z,101042.88
2022-08-03T15:17:04.135Z,101029.97
2022-08-03T15:20:00.986Z,101031.84
2022-08-03T15:22:16.592Z,101030.16
2022-08-03T15:24:46.807Z,101027.47
2022-08-03T15:27:13.078Z,101029.94
2022-08-03T15:30:09.659Z,101033.56
2022-08-03T15:32:25.537Z,101030.44
2022-08-03T15:34:52.641Z,101025.44
2022-08-03T15:37:18.851Z,101026.72
2022-08-03T15:40:00.090Z,101024.25
2022-08-03T15:42:26.916Z,101031.34
2022-08-03T15:44:53.753Z,101023.41
2022-08-03T15:47:21.238Z,101027.56
2022-08-03T15:49:47.779Z,101020.75
2022-08-03T15:52:14.085Z,101028.38
2022-08-03T15:54:40.334Z,101030.50
2022-08-03T15:57:06.652Z,101026.53
2022-08-03T15:59:32.832Z,101025.69
2022-08-03T16:01:59.091Z,101025.03
2022-08-03T16:04:25.340Z,101018.78
2022-08-03T16:06:51.570Z,101011.63
2022-08-03T16:09:23.629Z,101023.91
2022-08-03T16:12:03.981Z,101011.09
2022-08-03T16:14:33.357Z,101017.19
2022-08-03T16:17:01.974Z,101010.69
2022-08-03T16:19:28.217Z,101016.03
2022-08-03T16:21:54.422Z,101016.88
2022-08-03T16:24:28.098Z,101016.03
2022-08-03T16:26:54.508Z,101018.63
2022-08-03T16:29:22.679Z,101022.44
2022-08-03T16:31:51.132Z,101013.78
2022-08-03T16:34:17.852Z,101019.19
2022-08-03T16:36:45.244Z,101009.41
2022-08-03T16:39:11.538Z,101009.41
2022-08-03T16:41:54.348Z,101005.25
2022-08-03T16:44:24.133Z,101006.22
2022-08-03T16:46:53.343Z,101002.69
2022-08-03T16:49:54.593Z,101001.78
2022-08-03T16:52:07.137Z,101006.81
2022-08-03T16:54:33.505Z,101012.16
2022-08-03T16:57:01.090Z,101008.56
2022-08-03T16:59:36.004Z,101007.66
2022-08-03T17:02:07.973Z,101011.22
2022-08-03T17:04:36.304Z,101013.72
2022-08-03T17:07:06.672Z,101011.94
2022-08-03T17:09:38.286Z,101013.53
2022-08-03T17:12:05.123Z,101017.06
2022-08-03T17:14:33.484Z,101017.28
2022-08-03T17:16:59.721Z,101015.78
2022-08-03T17:19:27.800Z,101022.44
2022-08-03T17:21:55.433Z,101021.28
2022-08-03T17:24:21.666Z,101018.66
2022-08-03T17:26:51.512Z,101017.41
2022-08-03T17:29:17.748Z,101016.09
2022-08-03T17:31:49.646Z,101016.28
2022-08-03T17:34:16.217Z,101024.88
2022-08-03T17:37:03.407Z,101023.94
2022-08-03T17:39:55.803Z,101024.09
2022-08-03T17:42:26.925Z,101021.41
2022-08-03T17:44:57.674Z,101015.97
2022-08-03T17:47:23.900Z,101021.66
2022-08-03T17:49:55.660Z,101021.19
2022-08-03T17:52:22.016Z,101021.84
2022-08-03T17:55:50.597Z,101031.50
2022-08-03T17:58:01.441Z,101026.03
2022-08-03T18:00:21.011Z,101025.59
2022-08-03T18:02:49.289Z,101029.16
2022-08-03T18:05:17.804Z,101025.91
2022-08-03T18:07:48.023Z,101028.31
2022-08-03T18:10:15.446Z,101030.19
2022-08-03T18:12:42.210Z,101033.13
2022-08-03T18:15:13.237Z,101034.41
2022-08-03T18:17:58.076Z,101031.19
2022-08-03T18:20:32.112Z,101032.44
2022-08-03T18:23:05.364Z,101037.31
2022-08-03T18:25:45.716Z,101034.00
2022-08-03T18:28:16.427Z,101032.72
2022-08-03T18:30:54.010Z,101035.03
2022-08-03T18:34:17.194Z,101040.41
2022-08-03T18:36:07.436Z,101034.84
2022-08-03T18:38:35.416Z,101036.88
2022-08-03T18:41:01.769Z,101036.94
2022-08-03T18:43:46.712Z,101039.50
2022-08-03T18:46:14.244Z,101044.22
2022-08-03T18:48:40.473Z,101044.81
2022-08-03T18:51:12.344Z,101037.56
2022-08-03T18:54:02.789Z,101041.44
2022-08-03T18:56:32.339Z,101044.22
2022-08-03T18:59:02.243Z,101046.44
2022-08-03T19:01:58.350Z,101050.34
2022-08-03T19:04:15.223Z,101053.06
2022-08-03T19:06:43.166Z,101052.19
2022-08-03T19:09:10.358Z,101054.66
2022-08-03T19:12:14.185Z,101061.31
2022-08-03T19:14:22.802Z,101060.69
2022-08-03T19:16:55.074Z,101056.16
2022-08-03T19:19:21.286Z,101057.78
2022-08-03T19:21:49.269Z,101064.13
2022-08-03T19:24:15.703Z,101069.38
2022-08-03T19:26:41.978Z,101070.38
2022-08-03T19:29:11.349Z,101072.53
2022-08-03T19:31:41.710Z,101072.41
2022-08-03T19:34:25.455Z,101067.88
2022-08-03T19:36:51.689Z,101070.31
2022-08-03T19:39:17.954Z,101072.75
2022-08-03T19:41:44.935Z,101078.22
2022-08-03T19:44:19.859Z,101077.59
2022-08-03T19:46:46.628Z,101073.59
2022-08-03T19:49:15.088Z,101071.25
2022-08-03T19:52:02.453Z,101072.22
2022-08-03T19:54:29.849Z,101069.94
2022-08-03T19:56:58.473Z,101068.44
2022-08-03T19:59:24.724Z,101071.44
2022-08-03T20:01:52.730Z,101077.44
2022-08-03T20:04:18.947Z,101074.03
2022-08-03T20:06:46.779Z,101076.16
2022-08-03T20:09:15.922Z,101066.03
2022-08-03T20:11:43.665Z,101067.06
2022-08-03T20:14:11.272Z,101071.97
2022-08-03T20:16:39.520Z,101066.88
2022-08-03T20:19:05.708Z,101070.09
2022-08-03T20:21:40.665Z,101063.59
2022-08-03T20:24:24.376Z,101064.91
2022-08-03T20:26:51.806Z,101063.13
2022-08-03T20:29:19.618Z,101062.19
2022-08-03T20:32:05.799Z,101060.66
2022-08-03T20:34:32.682Z,101056.72
2022-08-03T20:36:58.914Z,101060.78
2022-08-03T20:39:26.190Z,101062.63
2022-08-03T20:41:53.704Z,101063.66
2022-08-03T20:44:25.780Z,101070.19
2022-08-03T20:47:00.299Z,101060.09
2022-08-03T20:49:27.027Z,101068.34
2022-08-03T20:51:53.739Z,101074.06
2022-08-03T20:54:22.968Z,101065.63
2022-08-03T20:56:56.311Z,101073.00
2022-08-03T20:59:22.577Z,101071.22
2022-08-03T21:01:50.369Z,101074.13
2022-08-03T21:04:20.900Z,101067.66
2022-08-03T21:06:53.165Z,101064.78
2022-08-03T21:09:19.858Z,101067.72
2022-08-03T21:11:46.454Z,101073.19
2022-08-03T21:14:12.675Z,101068.38
2022-08-03T21:16:38.949Z,101073.81
2022-08-03T21:19:05.115Z,101072.63
2022-08-03T21:21:31.354Z,101070.81
2022-08-03T21:23:57.564Z,101073.50
2022-08-03T21:26:23.752Z,101065.06
2022-08-03T21:28:49.987Z,101071.34
2022-08-03T21:31:24.198Z,101067.34
2022-08-03T21:33:52.023Z,101074.72
2022-08-03T21:36:18.198Z,101063.53
2022-08-03T21:38:44.402Z,101072.81
2022-08-03T21:41:21.954Z,101065.22
2022-08-03T21:43:48.144Z,101062.34
2022-08-03T21:46:14.351Z,101065.03
2022-08-03T21:48:40.555Z,101062.13
2022-08-03T21:51:06.783Z,101071.19
2022-08-03T21:54:02.791Z,101063.59
2022-08-03T21:56:19.182Z,101067.09
2022-08-03T21:58:45.373Z,101068.88
2022-08-03T22:01:17.330Z,101066.00
2022-08-03T22:03:53.909Z,101073.94
2022-08-03T22:06:20.508Z,101074.63
2022-08-03T22:08:48.782Z,101073.66
2022-08-03T22:11:15.015Z,101074.38
2022-08-03T22:13:43.282Z,101073.16
2022-08-03T22:16:10.796Z,101075.00
2022-08-03T22:18:37.044Z,101081.25
2022-08-03T22:21:03.255Z,101090.00
2022-08-03T22:23:29.856Z,101084.59
2022-08-03T22:25:56.077Z,101080.84
2022-08-03T22:28:22.289Z,101085.16
2022-08-03T22:30:48.460Z,101086.94
2022-08-03T22:33:14.687Z,101084.88
2022-08-03T22:35:44.246Z,101080.91
2022-08-03T22:38:14.391Z,101091.25
2022-08-03T22:40:40.618Z,101095.31
2022-08-03T22:43:06.803Z,101090.47
2022-08-03T22:46:07.243Z,101096.44
2022-08-03T22:48:19.259Z,101097.16
2022-08-03T22:50:45.488Z,101104.00
2022-08-03T22:53:11.701Z,101095.34
2022-08-03T22:55:37.936Z,101104.09
2022-08-03T22:58:04.120Z,101101.78
2022-08-03T23:00:30.495Z,101103.34
2022-08-03T23:02:56.769Z,101102.13
2022-08-03T23:06:01.530Z,101102.59
2022-08-03T23:08:09.202Z,101104.16
2022-08-03T23:10:35.412Z,101105.44
2022-08-03T23:13:01.605Z,101103.13
2022-08-03T23:15:27.810Z,101104.47
2022-08-03T23:17:57.950Z,101093.84
2022-08-03T23:20:26.517Z,101101.53
2022-08-03T23:22:52.955Z,101102.00
2022-08-03T23:25:19.117Z,101102.25
2022-08-03T23:27:45.353Z,101097.41
2022-08-03T23:30:11.563Z,101102.56
2022-08-03T23:32:37.773Z,101103.00
2022-08-03T23:35:03.997Z,101097.91
2022-08-03T23:37:30.221Z,101098.38
2022-08-03T23:39:56.421Z,101096.06
2022-08-03T23:42:22.625Z,101092.06
2022-08-03T23:44:48.925Z,101095.94
2022-08-03T23:47:15.145Z,101094.22
2022-08-03T23:49:41.318Z,101091.69
2022-08-03T23:52:07.540Z,101097.69
2022-08-03T23:54:33.752Z,101098.97
2022-08-03T23:56:59.968Z,101098.38
2022-08-03T23:59:26.159Z,101100.28
